Time;durP1;ratioP1;P1;durP2;ratioP2;P2;SDS_P1;SDS_P2;PMS_P1;PMS_P2;Temp;Humidity;BMP_temperature;BMP_pressure;BME280_temperature;BME280_humidity;BME280_pressure;Samples;Min_cycle;Max_cycle;Signal;HPM_P1;HPM_P2
2023/11/13 00:00:49;;;;;;;3.97;2.45;;;;;;;11.74;75.97;99497.78;5112554;28;20054;-27
2023/11/13 00:03:14;;;;;;;6.05;2.88;;;;;;;11.48;78.26;99501.44;5112616;28;20059;-27
2023/11/13 00:05:40;;;;;;;4.40;2.50;;;;;;;12.05;76.01;99504.97;5112563;28;20031;-26
2023/11/13 00:08:06;;;;;;;4.47;2.60;;;;;;;11.81;77.24;99511.06;5111683;28;20019;-26
2023/11/13 00:10:32;;;;;;;3.60;2.47;;;;;;;11.50;79.99;99502.88;5112626;28;20028;-27
2023/11/13 00:12:59;;;;;;;4.53;2.60;;;;;;;11.49;80.59;99505.75;5112518;28;20368;-26
2023/11/13 00:15:25;;;;;;;5.57;2.72;;;;;;;11.15;82.18;99516.59;5112281;28;20023;-27
2023/11/13 00:17:50;;;;;;;5.28;2.65;;;;;;;11.15;82.34;99511.25;5112105;28;20115;-27
2023/11/13 00:20:16;;;;;;;4.60;2.70;;;;;;;11.15;83.33;99518.44;5112097;28;20161;-27
2023/11/13 00:22:41;;;;;;;8.50;3.15;;;;;;;11.25;83.09;99524.16;5111877;28;20024;-27
2023/11/13 00:25:07;;;;;;;5.53;2.88;;;;;;;11.13;82.72;99523.97;5111309;28;20019;-40
2023/11/13 00:27:33;;;;;;;5.57;3.05;;;;;;;11.18;83.70;99536.69;5111540;28;20451;-38
2023/11/13 00:29:59;;;;;;;4.85;3.00;;;;;;;11.08;85.03;99536.28;5111493;28;20039;-39
2023/11/13 00:32:25;;;;;;;6.93;2.67;;;;;;;11.19;84.01;99540.97;5111632;28;20043;-40
2023/11/13 00:34:50;;;;;;;4.03;2.50;;;;;;;11.30;82.47;99534.97;5111908;28;20023;-38
2023/11/13 00:37:16;;;;;;;5.45;3.03;;;;;;;11.46;81.91;99524.84;5111584;28;20027;-39
2023/11/13 00:39:41;;;;;;;5.10;3.00;;;;;;;11.46;81.25;99538.16;5111793;28;20425;-40
2023/11/13 00:42:06;;;;;;;7.22;3.05;;;;;;;11.34;81.82;99546.81;5111910;28;20048;-40
2023/11/13 00:44:32;;;;;;;6.07;2.72;;;;;;;11.28;82.87;99542.34;5112211;28;20024;-38
2023/11/13 00:46:57;;;;;;;5.30;3.13;;;;;;;11.18;83.94;99543.84;5111921;28;20047;-40
2023/11/13 00:49:22;;;;;;;7.32;2.85;;;;;;;11.25;82.57;99548.13;5112111;28;20391;-40
2023/11/13 00:51:48;;;;;;;6.18;3.03;;;;;;;11.29;83.06;99559.97;5111724;28;20116;-39
2023/11/13 00:54:13;;;;;;;4.35;2.75;;;;;;;11.20;83.66;99563.91;5112010;28;20080;-40
2023/11/13 00:56:40;;;;;;;4.68;2.60;;;;;;;11.33;82.66;99561.19;5112289;28;20027;-40
2023/11/13 00:59:05;;;;;;;4.00;2.60;;;;;;;11.48;82.44;99554.75;5111882;28;20493;-40
2023/11/13 01:01:31;;;;;;;5.40;2.40;;;;;;;11.48;82.33;99562.75;5112170;28;20028;-39
2023/11/13 01:03:56;;;;;;;7.47;2.67;;;;;;;11.24;81.51;99559.00;5111641;28;20400;-40
2023/11/13 01:06:22;;;;;;;3.80;2.30;;;;;;;11.06;82.35;99559.66;5111860;28;20045;-39
2023/11/13 01:08:48;;;;;;;4.40;2.50;;;;;;;11.41;82.36;99564.66;5111714;28;20030;-39
2023/11/13 01:11:14;;;;;;;4.68;2.60;;;;;;;11.31;81.72;99576.56;5111629;28;20028;-39
2023/11/13 01:13:41;;;;;;;4.18;2.70;;;;;;;11.28;81.03;99573.50;5111453;28;20023;-38
2023/11/13 01:16:07;;;;;;;3.80;2.67;;;;;;;11.12;81.94;99572.97;5112017;28;20447;-39
2023/11/13 01:18:32;;;;;;;4.53;2.63;;;;;;;11.15;80.15;99559.19;5111307;28;20034;-40
2023/11/13 01:20:58;;;;;;;4.35;2.75;;;;;;;11.15;81.19;99558.41;5111523;28;20059;-39
2023/11/13 01:23:23;;;;;;;5.07;2.50;;;;;;;10.96;82.17;99555.59;5111083;28;20434;-39
2023/11/13 01:25:49;;;;;;;3.45;2.55;;;;;;;10.88;81.86;99547.03;5111458;28;20023;-39
2023/11/13 01:28:15;;;;;;;4.35;2.63;;;;;;;11.18;80.61;99536.69;5111249;28;20107;-39
2023/11/13 01:30:41;;;;;;;4.20;2.70;;;;;;;11.46;79.14;99530.16;5111296;28;20038;-38
2023/11/13 01:33:06;;;;;;;5.10;2.60;;;;;;;11.40;78.87;99518.50;5111407;28;20106;-40
2023/11/13 01:35:32;;;;;;;3.95;2.83;;;;;;;11.45;79.42;99518.69;5111157;28;20103;-39
2023/11/13 01:37:57;;;;;;;5.82;2.72;;;;;;;11.47;79.36;99515.81;5110976;28;20640;-38
2023/11/13 01:40:22;;;;;;;3.63;2.67;;;;;;;11.62;77.58;99526.19;5111251;28;20037;-39
2023/11/13 01:42:48;;;;;;;5.65;2.72;;;;;;;12.01;75.56;99522.41;5116266;28;20015;-38
2023/11/13 01:45:14;;;;;;;4.38;2.60;;;;;;;11.86;76.83;99529.88;5121254;28;20022;-39
2023/11/13 01:47:40;;;;;;;6.60;3.00;;;;;;;11.37;77.99;99536.78;5085837;28;20039;-38
2023/11/13 01:50:06;;;;;;;5.10;2.70;;;;;;;11.23;80.17;99542.19;5078909;28;20395;-36
2023/11/13 01:52:33;;;;;;;4.70;2.70;;;;;;;11.26;81.45;99547.06;5087699;28;20454;-38
2023/11/13 01:55:00;;;;;;;4.00;2.80;;;;;;;11.21;81.68;99546.09;5090873;28;20036;-39
2023/11/13 01:57:26;;;;;;;5.22;3.10;;;;;;;11.23;81.51;99554.66;5090676;28;20107;-37
2023/11/13 01:59:53;;;;;;;4.68;2.90;;;;;;;11.41;81.21;99551.31;5089680;28;20408;-38
2023/11/13 02:02:19;;;;;;;3.85;2.72;;;;;;;11.49;79.83;99549.22;5069855;28;20117;-40
2023/11/13 02:04:45;;;;;;;5.95;2.80;;;;;;;11.51;80.80;99557.00;5070437;28;20101;-39
2023/11/13 02:07:11;;;;;;;5.60;3.03;;;;;;;11.49;81.22;99540.41;5070099;28;20079;-40
2023/11/13 02:09:40;;;;;;;6.93;3.00;;;;;;;11.34;81.85;99541.50;5070415;28;20032;-39
2023/11/13 02:12:07;;;;;;;5.80;2.88;;;;;;;11.51;79.78;99530.34;5070403;28;20143;-40
2023/11/13 02:14:32;;;;;;;4.35;2.97;;;;;;;11.26;81.41;99543.59;5070416;28;20028;-39
2023/11/13 02:17:04;;;;;;;6.35;3.10;;;;;;;11.15;81.23;99535.25;5070373;28;20170;-38
2023/11/13 02:19:30;;;;;;;5.03;3.15;;;;;;;11.32;80.64;99532.91;5070588;28;20036;-39
2023/11/13 02:21:58;;;;;;;6.38;3.10;;;;;;;11.42;79.51;99531.63;5072604;28;20503;-40
2023/11/13 02:24:24;;;;;;;5.47;3.20;;;;;;;11.57;78.52;99539.31;5090521;28;20036;-40
2023/11/13 02:26:51;;;;;;;3.83;2.67;;;;;;;11.39;80.15;99540.06;5082955;28;20395;-39
2023/11/13 02:29:16;;;;;;;6.03;3.22;;;;;;;12.08;77.70;99535.69;5070074;28;20523;-40
2023/11/13 02:31:52;;;;;;;5.00;3.00;;;;;;;12.36;77.17;99535.25;5072059;28;20040;-40
2023/11/13 02:34:18;;;;;;;5.65;3.00;;;;;;;12.24;77.89;99531.66;5074081;28;20206;-38
2023/11/13 02:36:45;;;;;;;6.38;3.00;;;;;;;12.44;76.80;99529.63;5073967;28;20029;-40
2023/11/13 02:39:11;;;;;;;5.95;3.00;;;;;;;12.35;77.17;99525.59;5073405;28;20086;-40
2023/11/13 02:41:37;;;;;;;5.03;3.30;;;;;;;11.85;80.14;99531.75;5073875;28;20349;-38
2023/11/13 02:44:02;;;;;;;5.00;3.17;;;;;;;11.65;81.32;99531.06;5073643;28;20024;-38
2023/11/13 02:46:28;;;;;;;6.95;3.38;;;;;;;11.44;81.85;99535.72;5076550;28;20175;-39
2023/11/13 02:48:53;;;;;;;4.15;3.00;;;;;;;11.35;82.13;99537.00;5114236;28;20544;-40
2023/11/13 02:51:18;;;;;;;6.43;3.35;;;;;;;11.10;83.44;99532.41;5114754;28;20044;-38
2023/11/13 02:53:44;;;;;;;5.22;3.20;;;;;;;11.00;84.36;99528.56;5113997;28;20084;-41
2023/11/13 02:56:10;;;;;;;8.05;2.85;;;;;;;11.12;83.66;99534.88;5113730;28;20023;-40
2023/11/13 02:58:35;;;;;;;4.20;3.03;;;;;;;11.04;84.59;99530.59;5113718;28;20020;-40
2023/11/13 03:01:01;;;;;;;5.30;3.13;;;;;;;10.90;84.57;99513.84;5113903;28;20658;-40
2023/11/13 03:03:27;;;;;;;6.30;3.13;;;;;;;11.08;84.62;99531.81;5114272;28;20036;-40
2023/11/13 03:05:52;;;;;;;5.53;3.40;;;;;;;10.85;84.45;99534.13;5113999;28;20396;-37
2023/11/13 03:08:18;;;;;;;4.45;3.30;;;;;;;10.79;86.02;99527.81;5114185;28;20103;-40
2023/11/13 03:10:43;;;;;;;7.88;3.17;;;;;;;10.88;86.20;99536.38;5113941;28;20118;-40
2023/11/13 03:13:08;;;;;;;4.40;3.20;;;;;;;10.96;86.75;99538.81;5113443;28;20037;-38
2023/11/13 03:15:34;;;;;;;6.47;3.63;;;;;;;10.95;84.81;99527.34;5113834;28;20102;-39
2023/11/13 03:18:00;;;;;;;5.78;3.17;;;;;;;10.95;85.57;99543.31;5113409;28;20023;-38
2023/11/13 03:20:26;;;;;;;5.68;3.10;;;;;;;11.22;84.09;99545.06;5113736;28;20031;-39
2023/11/13 03:22:51;;;;;;;6.60;3.60;;;;;;;11.26;83.58;99541.75;5113639;28;20035;-40
2023/11/13 03:25:18;;;;;;;4.97;3.33;;;;;;;11.55;82.50;99532.34;5113693;28;20024;-41
2023/11/13 03:27:43;;;;;;;5.28;3.20;;;;;;;11.62;81.41;99528.84;5113825;28;20032;-39
2023/11/13 03:30:09;;;;;;;5.68;3.10;;;;;;;11.62;80.56;99532.31;5113742;28;20399;-38
2023/11/13 03:32:35;;;;;;;4.80;3.25;;;;;;;11.35;80.98;99545.81;5113441;28;20024;-39
2023/11/13 03:35:01;;;;;;;7.05;3.15;;;;;;;11.24;82.42;99545.66;5095114;28;20024;-37
2023/11/13 03:37:26;;;;;;;4.97;3.05;;;;;;;11.01;82.97;99548.84;5112597;28;20031;-38
2023/11/13 03:39:52;;;;;;;4.28;3.08;;;;;;;11.04;83.53;99545.75;5113590;28;20106;-40
2023/11/13 03:42:18;;;;;;;6.90;3.10;;;;;;;11.14;83.09;99548.78;5112725;28;20019;-40
2023/11/13 03:44:43;;;;;;;4.80;2.70;;;;;;;10.85;85.50;99550.94;5113268;28;20409;-39
2023/11/13 03:47:09;;;;;;;7.72;3.50;;;;;;;10.93;86.01;99542.72;5113114;28;20039;-40
2023/11/13 03:49:35;;;;;;;5.53;3.40;;;;;;;10.99;85.30;99533.06;5112660;28;20027;-39
2023/11/13 03:52:00;;;;;;;4.47;3.30;;;;;;;10.95;85.63;99534.53;5112765;27;20030;-40
2023/11/13 03:54:25;;;;;;;5.32;3.53;;;;;;;10.91;85.86;99539.44;5116981;27;20028;-39
2023/11/13 03:56:51;;;;;;;5.28;3.22;;;;;;;11.15;85.00;99545.09;5113095;28;20034;-38
2023/11/13 03:59:16;;;;;;;6.20;3.75;;;;;;;10.90;85.58;99545.78;5114150;27;20023;-40
2023/11/13 04:01:45;;;;;;;8.80;4.03;;;;;;;10.92;86.64;99550.91;5127057;27;20107;-39
2023/11/13 04:04:11;;;;;;;11.65;7.55;;;;;;;10.89;87.00;99553.97;5127801;27;20117;-38
2023/11/13 04:06:36;;;;;;;7.13;4.57;;;;;;;11.05;86.14;99552.72;5133251;27;20535;-40
2023/11/13 04:09:02;;;;;;;7.53;3.80;;;;;;;11.33;84.42;99547.88;5132978;27;20425;-39
2023/11/13 04:11:27;;;;;;;6.85;3.95;;;;;;;11.40;83.95;99549.69;5133408;27;20029;-38
2023/11/13 04:13:52;;;;;;;4.10;3.15;;;;;;;11.27;83.41;99540.72;5114291;27;20023;-40
2023/11/13 04:16:18;;;;;;;7.35;3.40;;;;;;;11.35;84.33;99543.16;5112425;28;20445;-40
2023/11/13 04:18:43;;;;;;;5.47;3.70;;;;;;;11.34;84.41;99546.00;5112842;28;20039;-37
2023/11/13 04:21:09;;;;;;;4.97;3.40;;;;;;;11.64;82.35;99540.91;5112576;28;20379;-39
2023/11/13 04:23:35;;;;;;;5.45;3.28;;;;;;;11.38;84.39;99549.06;5112268;28;20016;-39
2023/11/13 04:26:00;;;;;;;8.95;3.28;;;;;;;11.17;85.23;99540.34;5112506;28;20047;-40
2023/11/13 04:28:30;;;;;;;6.85;3.63;;;;;;;11.08;85.94;99537.13;5112480;28;20023;-43
2023/11/13 04:30:56;;;;;;;6.43;3.30;;;;;;;10.94;86.81;99544.34;5112149;28;20019;-40
2023/11/13 04:33:21;;;;;;;4.72;3.38;;;;;;;10.94;87.37;99547.00;5112128;28;20031;-40
2023/11/13 04:35:47;;;;;;;6.85;3.60;;;;;;;10.88;87.89;99557.69;5112395;28;20024;-39
2023/11/13 04:38:12;;;;;;;6.47;3.70;;;;;;;10.78;88.40;99563.44;5112451;28;20032;-40
2023/11/13 04:40:38;;;;;;;6.05;3.63;;;;;;;10.84;88.82;99570.59;5112417;28;20417;-40
2023/11/13 04:43:03;;;;;;;6.63;3.67;;;;;;;10.87;87.91;99575.50;5112000;28;20054;-39
2023/11/13 04:45:29;;;;;;;5.55;3.90;;;;;;;10.75;88.64;99574.50;5111991;28;20059;-39
2023/11/13 04:47:54;;;;;;;9.07;4.40;;;;;;;10.82;88.74;99569.19;5111664;28;20055;-39
2023/11/13 04:50:20;;;;;;;5.68;3.92;;;;;;;10.67;89.81;99572.06;5112041;28;20102;-39
2023/11/13 04:52:45;;;;;;;7.00;4.30;;;;;;;10.68;90.11;99579.03;5113846;27;20030;-39
2023/11/13 04:55:12;;;;;;;7.40;3.90;;;;;;;10.75;87.21;99590.47;5111964;27;20019;-39
2023/11/13 04:57:38;;;;;;;6.88;4.38;;;;;;;10.68;87.58;99585.19;5115139;27;20019;-40
2023/11/13 05:00:05;;;;;;;8.10;4.32;;;;;;;10.82;86.35;99591.28;5112055;28;20039;-39
2023/11/13 05:02:30;;;;;;;7.40;4.03;;;;;;;10.81;85.64;99588.81;5110629;28;20309;-42
2023/11/13 05:04:56;;;;;;;6.72;4.40;;;;;;;10.91;84.61;99597.22;5128306;27;20091;-40
2023/11/13 05:07:22;;;;;;;6.05;3.90;;;;;;;10.88;84.14;99594.97;5112719;28;20042;-40
2023/11/13 05:09:48;;;;;;;8.18;4.45;;;;;;;10.93;83.09;99603.16;5111436;28;20516;-40
2023/11/13 05:12:14;;;;;;;8.18;5.15;;;;;;;11.21;82.09;99610.81;5112680;28;20035;-39
2023/11/13 05:14:43;;;;;;;8.68;4.45;;;;;;;11.37;82.87;99616.72;5111185;28;20058;-39
2023/11/13 05:17:08;;;;;;;6.68;4.60;;;;;;;11.95;80.59;99619.28;5102009;28;20102;-41
2023/11/13 05:19:34;;;;;;;8.98;4.13;;;;;;;12.46;78.00;99618.28;5118097;27;20023;-40
2023/11/13 05:21:59;;;;;;;10.63;5.67;;;;;;;12.83;75.28;99618.38;5131713;27;20045;-41
2023/11/13 05:24:25;;;;;;;10.73;6.82;;;;;;;13.08;74.11;99634.31;5131698;27;20219;-40
2023/11/13 05:26:52;;;;;;;8.35;4.75;;;;;;;13.18;72.42;99630.31;5130094;27;20304;-42
2023/11/13 05:29:18;;;;;;;9.07;4.68;;;;;;;13.23;72.94;99631.28;5129702;27;20041;-43
2023/11/13 05:31:43;;;;;;;6.75;4.55;;;;;;;13.48;72.62;99633.88;5130409;27;20494;-39
2023/11/13 05:34:09;;;;;;;9.45;4.82;;;;;;;13.65;71.56;99635.91;5130896;27;20076;-41
2023/11/13 05:36:35;;;;;;;8.18;4.60;;;;;;;13.59;70.01;99645.66;5130397;27;20119;-40
2023/11/13 05:39:00;;;;;;;6.85;4.78;;;;;;;13.14;71.04;99645.97;5130493;27;20106;-41
2023/11/13 05:41:26;;;;;;;8.23;4.75;;;;;;;13.24;70.72;99648.13;5132222;27;20057;-39
2023/11/13 05:43:54;;;;;;;6.65;4.60;;;;;;;13.28;70.63;99654.66;5132175;27;20412;-41
2023/11/13 05:46:20;;;;;;;9.52;4.72;;;;;;;13.37;70.81;99655.22;5131900;28;20076;-40
2023/11/13 05:48:46;;;;;;;8.75;4.63;;;;;;;13.42;70.44;99656.19;5131847;28;20415;-39
2023/11/13 05:51:14;;;;;;;9.45;4.40;;;;;;;13.35;70.73;99659.97;5113305;28;20449;-41
2023/11/13 05:53:40;;;;;;;7.88;5.20;;;;;;;13.21;70.55;99662.75;5131628;28;20439;-39
2023/11/13 05:56:05;;;;;;;7.55;4.38;;;;;;;13.23;70.48;99671.38;5131563;28;20054;-41
2023/11/13 05:58:31;;;;;;;5.82;4.30;;;;;;;13.35;69.57;99676.00;5130935;28;20067;-40
2023/11/13 06:00:57;;;;;;;7.07;3.95;;;;;;;13.36;68.94;99675.75;5121505;28;20019;-40
2023/11/13 06:03:23;;;;;;;7.70;3.75;;;;;;;13.29;69.07;99672.34;5110942;28;20030;-41
2023/11/13 06:05:48;;;;;;;7.28;4.40;;;;;;;13.03;69.91;99666.22;5113205;28;20508;-41
2023/11/13 06:08:14;;;;;;;6.00;4.22;;;;;;;13.16;69.50;99665.28;5115489;28;20027;-40
2023/11/13 06:10:39;;;;;;;11.75;7.30;;;;;;;13.26;68.46;99667.44;5115443;28;20012;-40
2023/11/13 06:13:06;;;;;;;9.25;5.20;;;;;;;13.37;68.56;99668.56;5115261;28;20376;-40
2023/11/13 06:15:31;;;;;;;9.95;5.20;;;;;;;13.38;68.58;99665.66;5115490;28;20094;-39
2023/11/13 06:17:57;;;;;;;12.80;4.88;;;;;;;13.22;69.26;99675.06;5105779;28;20110;-39
2023/11/13 06:20:23;;;;;;;6.53;4.45;;;;;;;13.36;69.33;99677.63;5099438;28;20019;-40
2023/11/13 06:22:48;;;;;;;7.20;4.38;;;;;;;13.48;68.95;99689.22;5107174;28;20024;-41
2023/11/13 06:25:14;;;;;;;7.03;4.53;;;;;;;13.56;68.37;99688.91;5114995;28;20053;-40
2023/11/13 06:27:40;;;;;;;6.05;4.22;;;;;;;13.62;68.02;99698.69;5113505;28;20085;-42
2023/11/13 06:30:12;;;;;;;6.13;4.57;;;;;;;13.51;68.26;99695.97;5113349;28;20040;-40
2023/11/13 06:32:37;;;;;;;9.32;4.40;;;;;;;13.50;68.36;99692.47;5113118;28;20020;-39
2023/11/13 06:35:03;;;;;;;6.95;4.50;;;;;;;13.82;67.59;99697.63;5114408;28;20030;-38
2023/11/13 06:37:28;;;;;;;6.68;4.38;;;;;;;13.83;67.25;99697.41;5114452;28;20027;-43
2023/11/13 06:39:54;;;;;;;8.25;5.18;;;;;;;13.87;66.59;99700.44;5114371;28;20034;-40
2023/11/13 06:42:19;;;;;;;7.60;4.35;;;;;;;14.03;66.17;99715.03;5113978;28;20475;-39
2023/11/13 06:44:44;;;;;;;7.40;4.60;;;;;;;14.14;65.77;99713.47;5114255;28;20016;-40
2023/11/13 06:47:10;;;;;;;6.65;4.00;;;;;;;14.06;65.75;99712.72;5114325;28;20446;-40
2023/11/13 06:49:38;;;;;;;5.85;3.80;;;;;;;13.96;65.64;99727.72;5114367;28;20028;-40
2023/11/13 06:52:08;;;;;;;5.57;3.80;;;;;;;13.79;65.34;99722.97;5114494;28;20140;-42
2023/11/13 06:54:35;;;;;;;7.07;3.70;;;;;;;14.03;64.78;99718.56;5113993;28;20023;-42
2023/11/13 06:57:01;;;;;;;7.28;4.03;;;;;;;13.95;64.45;99726.06;5114456;28;20098;-39
2023/11/13 06:59:26;;;;;;;6.38;3.75;;;;;;;13.47;65.93;99727.66;5114140;28;20505;-40
2023/11/13 07:01:52;;;;;;;8.18;4.30;;;;;;;13.74;65.94;99727.34;5113923;28;20030;-42
2023/11/13 07:04:18;;;;;;;7.15;4.13;;;;;;;13.92;66.01;99734.53;5114240;28;20020;-40
2023/11/13 07:06:44;;;;;;;9.07;3.97;;;;;;;14.25;65.06;99736.78;5114316;28;20911;-43
2023/11/13 07:09:13;;;;;;;7.10;4.30;;;;;;;14.46;64.40;99735.44;5114089;28;20065;-42
2023/11/13 07:11:42;;;;;;;6.80;4.18;;;;;;;14.66;64.30;99741.34;5114419;28;20103;-41
2023/11/13 07:14:17;;;;;;;6.00;4.57;;;;;;;14.59;64.25;99724.56;5114178;28;20030;-40
2023/11/13 07:16:43;;;;;;;6.55;4.32;;;;;;;14.80;63.48;99739.25;5113477;28;20032;-40
2023/11/13 07:19:10;;;;;;;9.65;4.50;;;;;;;14.96;63.37;99728.91;5114270;28;20034;-39
2023/11/13 07:21:35;;;;;;;7.57;4.45;;;;;;;14.97;63.06;99722.50;5114082;28;20027;-41
2023/11/13 07:24:06;;;;;;;7.50;4.50;;;;;;;14.92;62.31;99723.19;5112747;28;20111;-43
2023/11/13 07:26:32;;;;;;;7.88;4.55;;;;;;;15.18;61.91;99719.22;5113928;28;20027;-41
2023/11/13 07:28:58;;;;;;;9.38;4.70;;;;;;;15.33;62.06;99724.13;5113756;28;20506;-45
2023/11/13 07:31:24;;;;;;;6.93;4.55;;;;;;;15.35;61.56;99713.16;5113702;28;20054;-42
2023/11/13 07:33:49;;;;;;;7.65;4.43;;;;;;;15.51;60.52;99717.78;5113206;28;20373;-40
2023/11/13 07:36:16;;;;;;;9.32;4.40;;;;;;;15.59;60.17;99721.97;5113219;28;20024;-41
2023/11/13 07:38:45;;;;;;;6.35;4.07;;;;;;;15.68;60.55;99709.81;5112644;28;20034;-41
2023/11/13 07:41:11;;;;;;;7.25;3.90;;;;;;;15.80;59.68;99702.59;5095145;28;20035;-40
2023/11/13 07:43:44;;;;;;;6.65;3.50;;;;;;;15.79;59.14;99702.81;5113047;28;20499;-38
2023/11/13 07:46:11;;;;;;;6.60;3.72;;;;;;;15.47;60.36;99713.13;5113303;28;20031;-41
2023/11/13 07:48:38;;;;;;;6.03;3.65;;;;;;;15.34;60.71;99720.38;5112913;28;20401;-40
2023/11/13 07:51:05;;;;;;;6.65;3.70;;;;;;;15.08;60.33;99715.50;5113062;28;20380;-41
2023/11/13 07:53:31;;;;;;;11.77;3.78;;;;;;;15.32;60.10;99705.56;5113341;28;20023;-41
2023/11/13 07:55:56;;;;;;;7.00;3.90;;;;;;;15.73;59.60;99691.19;5113019;28;20106;-42
2023/11/13 07:58:22;;;;;;;7.40;3.70;;;;;;;15.77;58.62;99699.56;5112882;28;20027;-40
2023/11/13 08:00:52;;;;;;;6.40;3.72;;;;;;;16.29;58.01;99699.44;5113315;28;20024;-41
2023/11/13 08:03:18;;;;;;;7.45;4.00;;;;;;;16.68;55.83;99707.63;5113706;28;20027;-41
2023/11/13 08:05:45;;;;;;;11.57;4.03;;;;;;;16.83;55.89;99701.69;5113103;28;20027;-43
2023/11/13 08:08:13;;;;;;;7.25;4.18;;;;;;;17.31;55.24;99705.59;5112737;28;20042;-41
2023/11/13 08:10:39;;;;;;;6.50;3.90;;;;;;;17.94;54.44;99700.72;5113897;28;20024;-40
2023/11/13 08:13:05;;;;;;;6.05;3.50;;;;;;;18.41;52.60;99702.00;5113779;28;20027;-40
2023/11/13 08:15:31;;;;;;;6.68;3.10;;;;;;;18.88;50.32;99700.50;5113559;28;20032;-43
2023/11/13 08:17:57;;;;;;;6.45;3.13;;;;;;;19.21;49.19;99706.63;5113747;28;20031;-41
2023/11/13 08:20:26;;;;;;;6.07;3.25;;;;;;;19.39;48.72;99702.69;5112989;27;20407;-41
2023/11/13 08:22:52;;;;;;;5.13;3.50;;;;;;;19.86;48.08;99699.13;5112588;28;20080;-40
2023/11/13 08:25:17;;;;;;;5.72;3.40;;;;;;;20.21;46.93;99695.66;5112612;28;20032;-45
2023/11/13 08:27:44;;;;;;;7.20;3.90;;;;;;;20.53;45.98;99691.09;5112736;28;20088;-40
2023/11/13 08:30:13;;;;;;;8.98;3.90;;;;;;;20.64;45.09;99690.06;5111688;28;20034;-42
2023/11/13 08:32:39;;;;;;;6.53;3.60;;;;;;;20.63;43.94;99702.75;5112251;28;20420;-39
2023/11/13 08:35:05;;;;;;;5.47;3.50;;;;;;;20.63;43.71;99705.44;5112644;28;20061;-40
2023/11/13 08:37:31;;;;;;;5.97;3.47;;;;;;;20.51;44.24;99699.47;5112609;28;20491;-38
2023/11/13 08:39:57;;;;;;;8.68;3.00;;;;;;;20.50;43.64;99695.13;5111987;28;20081;-40
2023/11/13 08:42:22;;;;;;;5.40;3.15;;;;;;;20.25;44.34;99693.25;5112235;28;20027;-36
2023/11/13 08:44:48;;;;;;;4.72;3.20;;;;;;;20.38;42.67;99681.91;5111707;28;20392;-40
2023/11/13 08:47:15;;;;;;;4.88;2.95;;;;;;;20.22;43.74;99685.66;5111706;28;20047;-39
2023/11/13 08:49:42;;;;;;;4.60;3.17;;;;;;;20.65;43.89;99705.97;5111457;28;20031;-39
2023/11/13 08:52:10;;;;;;;3.92;2.95;;;;;;;20.88;43.06;99709.22;5111581;28;20023;-42
2023/11/13 08:54:36;;;;;;;5.43;3.40;;;;;;;21.04;43.24;99713.53;5111613;28;20023;-40
2023/11/13 08:57:06;;;;;;;7.05;3.20;;;;;;;21.01;43.06;99718.66;5111612;28;20129;-40
2023/11/13 08:59:35;;;;;;;6.55;3.00;;;;;;;21.05;41.15;99701.59;5111754;28;20016;-40
2023/11/13 09:02:05;;;;;;;5.55;3.60;;;;;;;21.01;41.63;99705.94;5112036;28;20107;-37
2023/11/13 09:04:34;;;;;;;8.45;4.03;;;;;;;20.79;41.38;99710.84;5111679;28;20111;-39
2023/11/13 09:07:11;;;;;;;5.88;3.50;;;;;;;21.05;40.59;99707.00;5111788;28;20110;-42
2023/11/13 09:09:37;;;;;;;5.45;3.33;;;;;;;20.98;41.07;99709.22;5112236;28;20088;-41
2023/11/13 09:12:04;;;;;;;6.05;3.08;;;;;;;20.97;41.14;99706.78;5111874;28;20043;-38
2023/11/13 09:14:34;;;;;;;5.10;3.10;;;;;;;20.84;41.60;99694.63;5112239;28;20023;-42
2023/11/13 09:17:09;;;;;;;3.80;2.55;;;;;;;20.99;41.33;99693.78;5111717;28;20027;-41
2023/11/13 09:19:38;;;;;;;5.07;2.78;;;;;;;21.30;41.23;99689.09;5111896;28;20063;-40
2023/11/13 09:22:09;;;;;;;4.78;2.78;;;;;;;21.63;39.73;99682.22;5112145;28;20023;-41
2023/11/13 09:24:41;;;;;;;5.35;2.78;;;;;;;21.81;39.10;99674.56;5112106;28;20161;-43
2023/11/13 09:27:11;;;;;;;5.88;3.40;;;;;;;21.69;38.86;99669.47;5111390;28;20544;-40
2023/11/13 09:29:43;;;;;;;5.28;3.03;;;;;;;21.86;38.96;99669.91;5111257;28;20453;-39
2023/11/13 09:32:10;;;;;;;6.55;3.40;;;;;;;21.70;39.72;99652.13;5111570;28;20028;-38
2023/11/13 09:34:36;;;;;;;5.40;3.15;;;;;;;21.66;39.95;99642.94;5111836;28;20032;-40
2023/11/13 09:37:05;;;;;;;8.82;3.30;;;;;;;21.53;39.81;99641.66;5111728;28;20050;-40
2023/11/13 09:39:42;;;;;;;;;;;;;;;21.76;39.18;99636.66;5112071;28;20028;-39
2023/11/13 09:42:16;;;;;;;5.75;2.63;;;;;;;21.78;39.09;99627.19;5111452;28;19915;-38
2023/11/13 09:44:42;;;;;;;7.13;2.80;;;;;;;21.77;39.17;99622.84;5110994;28;20031;-39
2023/11/13 09:47:13;;;;;;;5.60;3.10;;;;;;;21.96;37.87;99633.81;5111118;28;20519;-38
2023/11/13 09:49:59;;;;;;;7.60;2.85;;;;;;;21.54;38.84;99620.81;5111212;28;20070;-42
2023/11/13 09:52:26;;;;;;;6.57;2.50;;;;;;;21.21;38.22;99617.69;5111318;28;20134;-39
2023/11/13 09:54:54;;;;;;;6.47;2.75;;;;;;;21.03;38.44;99619.13;5111487;28;20102;-38
2023/11/13 09:57:20;;;;;;;4.18;2.50;;;;;;;20.66;41.13;99623.00;5111254;28;20479;-39
2023/11/13 09:59:51;;;;;;;4.82;2.40;;;;;;;21.02;41.68;99620.22;5111384;28;20036;-40
2023/11/13 10:02:19;;;;;;;8.25;2.55;;;;;;;21.26;38.18;99612.25;5111025;28;20039;-40
2023/11/13 10:04:44;;;;;;;5.88;2.67;;;;;;;21.21;38.67;99620.38;5110582;28;20385;-42
2023/11/13 10:07:11;;;;;;;5.03;2.70;;;;;;;21.40;38.72;99607.88;5111239;28;20027;-38
2023/11/13 10:09:37;;;;;;;5.28;2.53;;;;;;;21.80;38.80;99602.50;5111418;28;20020;-37
2023/11/13 10:12:03;;;;;;;5.70;2.58;;;;;;;21.57;38.96;99601.31;5111203;28;20019;-40
2023/11/13 10:14:29;;;;;;;5.10;2.10;;;;;;;22.01;37.94;99600.50;5111438;28;20068;-41
2023/11/13 10:17:00;;;;;;;2.92;2.00;;;;;;;21.57;37.93;99606.72;5111109;28;20028;-40
2023/11/13 10:19:26;;;;;;;5.03;2.20;;;;;;;22.03;36.74;99607.22;5110953;28;20027;-40
2023/11/13 10:21:52;;;;;;;1.67;1.35;;;;;;;22.08;36.54;99614.50;5110972;28;20046;-41
2023/11/13 10:24:21;;;;;;;3.45;1.60;;;;;;;21.91;36.56;99620.31;5110796;28;20395;-39
2023/11/13 10:26:57;;;;;;;4.10;1.90;;;;;;;21.62;37.14;99623.75;5110796;28;20092;-36
2023/11/13 10:29:27;;;;;;;4.20;1.70;;;;;;;21.57;37.16;99625.66;5111189;28;20030;-40
2023/11/13 10:32:03;;;;;;;3.17;1.90;;;;;;;22.15;36.18;99627.75;5111013;28;20016;-40
2023/11/13 10:34:43;;;;;;;3.13;1.95;;;;;;;22.28;35.48;99615.47;5110993;28;20135;-39
2023/11/13 10:37:12;;;;;;;5.43;2.50;;;;;;;20.93;37.62;99609.13;5110726;28;20506;-36
2023/11/13 10:39:42;;;;;;;3.42;2.10;;;;;;;21.55;36.59;99606.19;5110735;28;20046;-38
2023/11/13 10:42:22;;;;;;;6.03;2.28;;;;;;;21.83;35.86;99610.09;5110529;28;20487;-41
2023/11/13 10:44:52;;;;;;;6.25;2.13;;;;;;;22.04;35.01;99611.53;5110435;28;20039;-40
2023/11/13 10:47:32;;;;;;;4.50;2.15;;;;;;;22.11;35.87;99600.41;5110521;28;20495;-40
2023/11/13 10:50:00;;;;;;;5.85;2.30;;;;;;;22.05;36.42;99604.25;5111063;28;20031;-38
2023/11/13 10:52:28;;;;;;;4.28;2.10;;;;;;;22.45;36.00;99610.44;5112441;28;20031;-39
2023/11/13 10:54:56;;;;;;;5.13;2.25;;;;;;;22.05;36.32;99607.75;5114277;28;20490;-41
2023/11/13 10:57:24;;;;;;;5.47;2.40;;;;;;;21.64;36.46;99608.03;5114543;28;20545;-39
2023/11/13 10:59:52;;;;;;;4.45;2.33;;;;;;;22.20;35.99;99606.84;5114267;28;20020;-40
2023/11/13 11:02:26;;;;;;;4.32;2.30;;;;;;;22.60;35.93;99607.59;5114115;28;20030;-40
2023/11/13 11:04:53;;;;;;;6.07;2.55;;;;;;;22.53;35.11;99598.97;5114037;28;20114;-39
2023/11/13 11:07:24;;;;;;;6.10;2.50;;;;;;;21.88;34.80;99601.94;5113880;28;20063;-37
2023/11/13 11:09:56;;;;;;;4.10;2.28;;;;;;;21.79;35.00;99596.28;5113893;28;20543;-37
2023/11/13 11:12:23;;;;;;;4.97;2.40;;;;;;;21.86;35.30;99602.22;5114248;28;20101;-39
2023/11/13 11:14:56;;;;;;;3.95;2.40;;;;;;;21.50;35.54;99598.13;5113782;28;20579;-40
2023/11/13 11:17:31;;;;;;;4.30;2.33;;;;;;;21.71;36.80;99585.25;5114092;28;20120;-44
2023/11/13 11:20:03;;;;;;;4.78;2.20;;;;;;;22.41;36.24;99599.34;5113671;28;20523;-39
2023/11/13 11:22:38;;;;;;;4.15;2.50;;;;;;;21.64;35.75;99594.47;5113745;28;20035;-38
2023/11/13 11:25:13;;;;;;;4.65;2.10;;;;;;;21.61;35.78;99588.81;5113955;28;20119;-40
2023/11/13 11:27:43;;;;;;;5.40;2.35;;;;;;;22.21;35.82;99586.75;5113656;28;20050;-39
2023/11/13 11:30:18;;;;;;;4.35;2.00;;;;;;;22.19;36.23;99593.56;5113578;28;20488;-38
2023/11/13 11:32:57;;;;;;;3.60;1.95;;;;;;;21.62;37.02;99591.25;5113683;28;20064;-41